createdAt,value
2023-01-15T00:09:05.963Z,99275.11
2023-01-15T00:24:28.470Z,99235.17
2023-01-15T00:39:40.752Z,99211.62
2023-01-15T00:54:45.526Z,99184.29
2023-01-15T01:09:49.003Z,99139.54
2023-01-15T01:24:52.395Z,99134.70
2023-01-15T01:39:56.824Z,99134.15
2023-01-15T01:55:02.330Z,99070.27
2023-01-15T02:10:06.392Z,99061.44
2023-01-15T02:25:55.021Z,99032.06
2023-01-15T02:41:01.613Z,99016.98
2023-01-15T02:56:15.105Z,98993.58
2023-01-15T03:11:22.557Z,98951.73
2023-01-15T03:26:32.288Z,98908.92
2023-01-15T03:42:06.221Z,98888.15
2023-01-15T03:57:22.247Z,98886.52
2023-01-15T04:12:28.148Z,98885.38
2023-01-15T04:27:32.589Z,98893.27
2023-01-15T04:42:54.335Z,98866.09
2023-01-15T04:57:57.879Z,98827.89
2023-01-15T05:13:01.210Z,98822.45
2023-01-15T05:28:04.689Z,98801.09
2023-01-15T05:43:08.302Z,98786.20
2023-01-15T05:58:11.457Z,98775.02
2023-01-15T06:13:15.521Z,98755.98
2023-01-15T06:28:18.803Z,98738.38
2023-01-15T06:43:40.625Z,98721.64
2023-01-15T06:58:44.745Z,98719.45
2023-01-15T07:13:49.309Z,98720.80
2023-01-15T07:28:52.464Z,98726.71
2023-01-15T07:44:14.286Z,98717.95
2023-01-15T07:59:17.615Z,98694.17
2023-01-15T08:14:39.582Z,98684.17
2023-01-15T08:29:42.907Z,98671.56
2023-01-15T08:44:46.365Z,98682.58
2023-01-15T08:59:49.543Z,98675.89
2023-01-15T09:14:55.897Z,98678.12
2023-01-15T09:30:07.547Z,98666.88
2023-01-15T09:45:18.856Z,98643.42
2023-01-15T10:00:25.622Z,98628.56
2023-01-15T10:15:48.459Z,98615.58
2023-01-15T10:30:57.013Z,98610.05
2023-01-15T10:46:31.578Z,98606.61
2023-01-15T11:01:36.547Z,98597.04
2023-01-15T11:17:00.978Z,98603.36
2023-01-15T11:32:04.503Z,98594.15
2023-01-15T11:47:31.950Z,98583.08
2023-01-15T12:02:47.646Z,98578.94
2023-01-15T12:17:55.810Z,98576.54
2023-01-15T12:33:17.751Z,98636.26
2023-01-15T12:48:52.059Z,98682.01
2023-01-15T13:04:04.053Z,98694.45
2023-01-15T13:19:40.028Z,98722.06
2023-01-15T13:35:10.519Z,98740.79
2023-01-15T13:50:18.406Z,98771.71
2023-01-15T14:05:34.520Z,98790.34
2023-01-15T14:20:44.876Z,98790.50
2023-01-15T14:35:49.476Z,98796.58
2023-01-15T14:50:54.285Z,98806.08
2023-01-15T15:05:57.848Z,98824.98
2023-01-15T15:21:05.173Z,98809.22
2023-01-15T15:36:09.649Z,98797.95
2023-01-15T15:51:53.250Z,98799.30
2023-01-15T16:06:56.543Z,98816.34
2023-01-15T16:21:59.856Z,98808.57
2023-01-15T16:37:03.526Z,98794.05
2023-01-15T16:52:35.654Z,98803.43
2023-01-15T17:07:39.337Z,98823.35
2023-01-15T17:22:47.866Z,98831.14
2023-01-15T17:37:51.685Z,98884.08
2023-01-15T17:52:54.982Z,98937.80
2023-01-15T18:08:01.127Z,98947.23
2023-01-15T18:23:05.832Z,98961.09
2023-01-15T18:38:09.434Z,98947.73
2023-01-15T18:53:13.616Z,98961.26
2023-01-15T19:08:18.569Z,98960.33
2023-01-15T19:23:22.499Z,98960.55
2023-01-15T19:38:29.878Z,98968.67
2023-01-15T19:53:48.548Z,98962.52
2023-01-15T20:08:52.932Z,98960.42
2023-01-15T20:23:58.525Z,98956.72
2023-01-15T20:39:02.423Z,98967.45
2023-01-15T20:54:05.686Z,98994.44
2023-01-15T21:09:08.936Z,98994.30
2023-01-15T21:24:12.244Z,98986.54
2023-01-15T21:39:17.206Z,98988.95
2023-01-15T21:54:20.491Z,98979.10
2023-01-15T22:09:23.825Z,98965.07
2023-01-15T22:24:29.342Z,98954.79
2023-01-15T22:39:32.577Z,98949.27
2023-01-15T22:54:35.829Z,98946.11
2023-01-15T23:09:39.121Z,98948.95
2023-01-15T23:24:42.537Z,98943.77
2023-01-15T23:39:45.863Z,98932.79
2023-01-15T23:54:48.930Z,98940.73
